Time;durP1;ratioP1;P1;durP2;ratioP2;P2;SDS_P1;SDS_P2;PMS_P1;PMS_P2;Temp;Humidity;BMP_temperature;BMP_pressure;BME280_temperature;BME280_humidity;BME280_pressure;Samples;Min_cycle;Max_cycle;Signal;HPM_P1;HPM_P2
2024/02/19 00:02:18;;;;;;;6.93;4.65;;;;;;;11.82;60.65;96125.31;6191589;23;20009;-86
2024/02/19 00:09:54;;;;;;;5.10;3.90;;;;;;;11.45;62.12;96144.84;6242866;22;20019;-87
2024/02/19 00:12:19;;;;;;;7.07;4.10;;;;;;;11.47;61.54;96138.47;6217581;23;20016;-87
2024/02/19 00:14:44;;;;;;;5.05;3.88;;;;;;;11.35;62.42;96137.97;6217455;23;20020;-86
2024/02/19 00:17:10;;;;;;;4.55;3.60;;;;;;;11.17;62.95;96139.88;6192764;23;20079;-86
2024/02/19 00:19:35;;;;;;;4.55;3.40;;;;;;;11.18;62.59;96138.91;6216588;23;19997;-85
2024/02/19 00:22:01;;;;;;;5.90;3.58;;;;;;;11.27;62.59;96135.34;6217607;23;20131;-86
2024/02/19 00:24:27;;;;;;;3.95;3.40;;;;;;;11.41;62.05;96143.53;6192671;23;20079;-86
2024/02/19 00:26:52;;;;;;;4.72;3.15;;;;;;;11.55;61.07;96125.44;6217326;23;20012;-85
2024/02/19 00:29:18;;;;;;;3.47;3.15;;;;;;;11.54;61.69;96120.44;6191944;23;20017;-85
2024/02/19 00:31:47;;;;;;;4.22;3.15;;;;;;;11.18;62.28;96115.47;6217587;23;20012;-86
2024/02/19 00:34:13;;;;;;;5.00;3.30;;;;;;;11.21;62.59;96120.34;6218270;23;20038;-87
2024/02/19 00:36:38;;;;;;;3.55;3.00;;;;;;;11.24;62.44;96122.63;6167599;23;20005;-87
2024/02/19 00:39:04;;;;;;;3.50;2.80;;;;;;;11.36;62.11;96115.34;6217369;23;20084;-87
2024/02/19 00:41:30;;;;;;;3.55;2.50;;;;;;;11.38;61.76;96116.00;6192238;23;20095;-86
2024/02/19 00:43:55;;;;;;;3.30;2.55;;;;;;;11.25;61.98;96100.84;6192279;23;20009;-86
2024/02/19 00:46:21;;;;;;;3.33;2.30;;;;;;;11.22;62.46;96100.34;6192102;23;20127;-86
2024/02/19 00:48:46;;;;;;;2.53;2.33;;;;;;;11.34;62.21;96112.06;6218423;23;20069;-86
2024/02/19 00:51:12;;;;;;;3.50;2.80;;;;;;;11.22;62.47;96108.97;6197718;23;20091;-86
2024/02/19 00:53:40;;;;;;;3.42;2.85;;;;;;;11.47;61.19;96114.22;6192409;23;20008;-87
2024/02/19 00:56:06;;;;;;;3.33;2.83;;;;;;;11.34;61.80;96117.28;6167582;23;20008;-87
2024/02/19 00:58:32;;;;;;;3.10;2.70;;;;;;;11.39;61.89;96119.44;6218822;23;20000;-87
2024/02/19 01:03:22;;;;;;;2.88;2.58;;;;;;;11.32;62.15;96122.66;6218251;23;20102;-86
2024/02/19 01:05:48;;;;;;;3.15;2.83;;;;;;;11.34;62.13;96120.69;6218717;23;20020;-87
2024/02/19 01:08:14;;;;;;;3.83;2.60;;;;;;;11.40;61.82;96116.63;6218915;23;20050;-86
2024/02/19 01:10:39;;;;;;;2.78;2.40;;;;;;;11.29;61.69;96114.34;6193937;23;20005;-86
2024/02/19 01:13:05;;;;;;;2.92;2.40;;;;;;;11.30;62.26;96118.59;6169202;23;20008;-86
2024/02/19 01:15:30;;;;;;;4.25;2.40;;;;;;;11.21;61.92;96107.31;6193794;23;20008;-87
2024/02/19 01:17:58;;;;;;;2.90;2.35;;;;;;;11.16;62.35;96120.03;6218758;23;20095;-86
2024/02/19 01:20:23;;;;;;;2.00;1.80;;;;;;;11.28;62.22;96108.31;6168509;23;20012;-86
2024/02/19 01:22:48;;;;;;;2.63;2.20;;;;;;;11.30;62.07;96113.38;6193753;23;20019;-86
2024/02/19 01:25:19;;;;;;;2.40;2.10;;;;;;;11.36;62.12;96123.16;6219580;23;20091;-86
2024/02/19 01:27:45;;;;;;;3.30;2.55;;;;;;;11.41;61.84;96122.69;6193786;23;20008;-86
2024/02/19 01:30:11;;;;;;;3.55;2.20;;;;;;;11.34;61.78;96112.88;6218457;23;20007;-86
2024/02/19 01:32:37;;;;;;;2.45;2.20;;;;;;;11.33;62.00;96116.47;6218776;23;20018;-86
2024/02/19 01:35:02;;;;;;;3.58;2.20;;;;;;;11.41;61.65;96122.69;6193831;23;20015;-86
2024/02/19 01:37:28;;;;;;;2.50;2.08;;;;;;;11.13;62.24;96104.72;6168811;23;20088;-86
2024/02/19 01:39:53;;;;;;;3.28;2.40;;;;;;;11.25;62.30;96121.69;6218715;23;20012;-87
2024/02/19 01:42:19;;;;;;;2.65;2.15;;;;;;;11.11;62.63;96110.06;6218623;23;20025;-87
2024/02/19 01:44:45;;;;;;;2.45;2.22;;;;;;;11.31;61.85;96118.44;6218526;23;20069;-86
2024/02/19 01:47:11;;;;;;;3.45;2.42;;;;;;;11.27;62.16;96118.91;6218431;23;20008;-86
2024/02/19 01:49:39;;;;;;;3.05;2.30;;;;;;;11.26;62.17;96114.69;6193448;23;20008;-86
2024/02/19 01:52:07;;;;;;;2.33;2.13;;;;;;;11.27;62.00;96117.13;6193536;23;20091;-86
2024/02/19 01:54:34;;;;;;;2.50;2.20;;;;;;;11.42;61.62;96103.47;6193633;23;20011;-86
2024/02/19 01:59:34;;;;;;;3.55;2.75;;;;;;;11.43;61.65;96097.28;6243843;22;20016;-86
2024/02/19 02:02:02;;;;;;;2.88;2.25;;;;;;;11.45;61.40;96114.38;6218398;23;20015;-86
2024/02/19 02:04:28;;;;;;;2.53;2.05;;;;;;;11.38;61.59;96104.75;6218356;23;20004;-87
2024/02/19 02:06:55;;;;;;;3.05;2.17;;;;;;;11.26;62.10;96101.66;6243333;23;20036;-86
2024/02/19 02:09:24;;;;;;;2.65;2.20;;;;;;;11.03;63.07;96110.06;6193369;23;20004;-87
2024/02/19 02:11:50;;;;;;;3.20;2.80;;;;;;;10.63;64.71;96101.13;6218717;23;20393;-86
2024/02/19 02:14:15;;;;;;;3.40;2.72;;;;;;;10.84;63.98;96105.94;6193608;23;20034;-87
2024/02/19 02:16:40;;;;;;;3.33;2.60;;;;;;;10.68;64.09;96098.88;6218322;23;20008;-87
2024/02/19 02:19:06;;;;;;;3.45;2.67;;;;;;;10.93;62.96;96102.38;6217409;23;20008;-87
2024/02/19 02:24:07;;;;;;;3.20;2.60;;;;;;;11.05;62.85;96102.09;6243577;22;20024;-87
2024/02/19 02:26:38;;;;;;;3.80;2.60;;;;;;;10.99;62.80;96102.72;6192627;23;20009;-86
2024/02/19 02:29:03;;;;;;;3.08;2.45;;;;;;;11.17;62.60;96093.00;6193142;23;20007;-86
2024/02/19 02:31:33;;;;;;;3.95;2.90;;;;;;;10.96;63.57;96094.25;6218354;23;20012;-86
2024/02/19 02:33:58;;;;;;;3.47;2.70;;;;;;;10.72;63.93;96091.59;6217767;23;20056;-84
2024/02/19 02:36:24;;;;;;;4.78;3.13;;;;;;;10.98;63.42;96085.47;6217805;23;20046;-85
2024/02/19 02:41:16;;;;;;;4.18;2.97;;;;;;;10.82;64.48;96086.25;6243639;22;20024;-86
2024/02/19 02:43:43;;;;;;;4.68;3.00;;;;;;;10.92;64.38;96087.72;6193045;23;20012;-86
2024/02/19 02:46:09;;;;;;;4.20;3.00;;;;;;;10.42;65.35;96091.09;6193396;23;20014;-86
2024/02/19 02:48:37;;;;;;;3.85;3.05;;;;;;;10.46;65.39;96092.44;6192709;23;20004;-86
2024/02/19 02:53:29;;;;;;;3.42;3.00;;;;;;;11.13;63.01;96082.09;6216676;23;20024;-87
2024/02/19 02:55:54;;;;;;;4.13;2.83;;;;;;;10.67;64.22;96080.81;6168328;23;20014;-87
2024/02/19 02:58:20;;;;;;;3.90;3.10;;;;;;;10.46;65.33;96091.63;6168535;23;20053;-86
2024/02/19 03:00:45;;;;;;;3.75;3.13;;;;;;;10.44;65.48;96086.56;6217757;23;20016;-86
2024/02/19 03:03:13;;;;;;;4.10;3.30;;;;;;;10.79;64.25;96096.97;6193168;23;20027;-86
2024/02/19 03:05:39;;;;;;;4.05;3.13;;;;;;;10.87;64.16;96089.16;6192649;23;20004;-86
2024/02/19 03:08:05;;;;;;;3.10;2.67;;;;;;;10.98;63.49;96075.06;6192998;23;20010;-86
2024/02/19 03:10:30;;;;;;;4.70;3.30;;;;;;;10.68;64.64;96085.88;6210267;23;20095;-86
2024/02/19 03:12:56;;;;;;;3.53;3.20;;;;;;;10.95;63.66;96066.59;6138951;23;20119;-87
2024/02/19 03:15:21;;;;;;;3.50;2.90;;;;;;;10.85;63.72;96071.13;6187810;23;20055;-86
2024/02/19 03:17:47;;;;;;;4.05;3.08;;;;;;;10.71;64.26;96069.13;6138502;23;20012;-86
2024/02/19 03:20:18;;;;;;;3.35;2.88;;;;;;;10.66;64.40;96076.56;6162195;23;20005;-86
2024/02/19 03:22:44;;;;;;;5.18;3.35;;;;;;;10.80;64.13;96078.59;6189192;23;20070;-86
2024/02/19 03:25:10;;;;;;;3.30;3.00;;;;;;;10.80;64.23;96068.19;6212403;23;20004;-87
2024/02/19 03:27:38;;;;;;;3.92;2.90;;;;;;;10.83;63.84;96051.44;6187510;23;20031;-86
2024/02/19 03:30:03;;;;;;;3.88;3.10;;;;;;;10.98;64.00;96075.06;6137948;23;20005;-86
2024/02/19 03:32:29;;;;;;;3.67;3.00;;;;;;;10.99;63.49;96071.50;6162655;23;20013;-86
2024/02/19 03:37:21;;;;;;;5.38;3.45;;;;;;;11.03;63.46;96063.19;6241791;22;20087;-86
2024/02/19 03:39:46;;;;;;;4.72;3.25;;;;;;;11.05;63.40;96055.22;6217544;23;20004;-86
2024/02/19 03:42:12;;;;;;;4.28;2.80;;;;;;;11.12;63.25;96064.03;6192855;23;20005;-85
2024/02/19 03:44:37;;;;;;;3.13;2.80;;;;;;;11.17;63.12;96066.97;6217115;23;20046;-86
2024/02/19 03:47:03;;;;;;;3.60;3.05;;;;;;;11.19;62.97;96051.19;6217092;23;20004;-86
2024/02/19 03:49:28;;;;;;;4.05;3.10;;;;;;;11.19;63.11;96057.19;6217728;23;20019;-86
2024/02/19 03:51:53;;;;;;;5.00;3.70;;;;;;;11.10;63.57;96056.38;6217468;23;20008;-86
2024/02/19 03:54:19;;;;;;;3.78;3.03;;;;;;;11.31;62.57;96053.31;6192474;23;20012;-86
2024/02/19 03:56:44;;;;;;;4.00;3.45;;;;;;;11.07;63.38;96048.88;6217265;23;20008;-86
2024/02/19 04:01:39;;;;;;;4.63;3.80;;;;;;;10.81;64.34;96061.19;6241602;22;20019;-86
2024/02/19 04:04:04;;;;;;;5.55;3.80;;;;;;;10.92;64.28;96066.91;6168046;23;20058;-87
2024/02/19 04:06:30;;;;;;;3.97;3.55;;;;;;;11.04;63.87;96064.00;6192369;23;20004;-87
2024/02/19 04:08:56;;;;;;;6.38;3.67;;;;;;;11.10;63.79;96058.16;6192108;23;20004;-87
2024/02/19 04:11:21;;;;;;;4.30;3.53;;;;;;;11.03;63.53;96052.78;6217595;23;20016;-87
2024/02/19 04:16:12;;;;;;;5.93;4.00;;;;;;;10.73;64.27;96051.56;6216553;23;20078;-87
2024/02/19 04:18:39;;;;;;;4.53;3.88;;;;;;;10.94;63.65;96053.75;6192387;23;20098;-87
2024/02/19 04:21:05;;;;;;;4.40;3.63;;;;;;;10.95;63.61;96053.59;6217617;23;20012;-87
2024/02/19 04:23:30;;;;;;;4.50;4.10;;;;;;;11.22;63.03;96059.50;6217627;23;20015;-86
2024/02/19 04:25:57;;;;;;;6.93;4.18;;;;;;;11.01;63.34;96053.94;6227208;23;20008;-87
2024/02/19 04:28:23;;;;;;;4.90;4.18;;;;;;;10.75;64.27;96045.22;6217418;23;20004;-87
2024/02/19 04:30:48;;;;;;;5.22;4.38;;;;;;;10.48;65.73;96058.47;6217650;23;20011;-87
2024/02/19 04:33:14;;;;;;;5.57;4.50;;;;;;;10.06;66.99;96046.19;6219617;23;20004;-87
2024/02/19 04:35:39;;;;;;;6.90;4.78;;;;;;;10.59;65.66;96050.38;6219004;23;20004;-86
2024/02/19 04:38:05;;;;;;;7.10;4.55;;;;;;;10.85;64.26;96044.28;6218998;23;20004;-86
2024/02/19 04:40:30;;;;;;;6.10;4.75;;;;;;;10.75;64.92;96044.41;6219430;23;20020;-86
2024/02/19 04:42:56;;;;;;;6.63;4.63;;;;;;;10.75;64.68;96047.00;6218760;23;20012;-86
2024/02/19 04:47:50;;;;;;;5.55;4.47;;;;;;;10.84;64.54;96053.88;6203814;23;20017;-87
2024/02/19 04:50:15;;;;;;;6.75;5.05;;;;;;;10.79;64.78;96035.31;6164895;23;20004;-87
2024/02/19 04:52:41;;;;;;;6.45;4.78;;;;;;;10.88;64.63;96038.75;6164376;23;20021;-87
2024/02/19 04:55:06;;;;;;;7.82;4.85;;;;;;;10.83;64.73;96021.00;6164224;23;20005;-87
2024/02/19 04:57:32;;;;;;;5.43;3.80;;;;;;;11.03;64.08;96038.97;6139222;23;20016;-86
2024/02/19 04:59:58;;;;;;;5.65;3.85;;;;;;;11.02;63.56;96030.31;6139742;23;20009;-86
2024/02/19 05:02:23;;;;;;;4.18;3.40;;;;;;;11.10;63.58;96026.91;6163950;23;20012;-86
2024/02/19 05:04:50;;;;;;;5.32;3.80;;;;;;;11.30;63.22;96038.66;6188637;23;20099;-86
2024/02/19 05:07:16;;;;;;;5.40;3.83;;;;;;;11.12;63.65;96027.59;6242461;22;20024;-86
2024/02/19 05:09:41;;;;;;;4.68;3.88;;;;;;;11.27;62.98;96019.94;6193709;23;20000;-86
2024/02/19 05:12:07;;;;;;;4.78;3.83;;;;;;;11.26;63.21;96037.34;6219291;23;20035;-86
2024/02/19 05:14:36;;;;;;;5.82;3.97;;;;;;;11.29;63.38;96037.03;6218902;23;20000;-86
2024/02/19 05:17:03;;;;;;;4.80;4.30;;;;;;;11.26;63.31;96031.34;6218784;23;20011;-86
2024/02/19 05:19:28;;;;;;;5.88;4.75;;;;;;;11.24;63.07;96020.28;6218717;23;20015;-86
2024/02/19 05:21:54;;;;;;;4.97;4.20;;;;;;;11.23;63.45;96029.06;6193313;23;20012;-86
2024/02/19 05:24:19;;;;;;;4.63;4.03;;;;;;;11.28;63.03;96022.38;6193615;23;20008;-86
2024/02/19 05:26:46;;;;;;;5.50;4.90;;;;;;;11.18;63.25;96010.50;6218562;23;20096;-87
2024/02/19 05:29:11;;;;;;;6.07;3.83;;;;;;;11.24;63.10;96018.47;6193706;23;20077;-86
2024/02/19 05:31:38;;;;;;;4.93;3.90;;;;;;;11.38;62.82;96026.63;6218949;23;20016;-86
2024/02/19 05:34:06;;;;;;;4.70;3.83;;;;;;;11.37;62.82;96030.22;6218929;23;20066;-86
2024/02/19 05:41:32;;;;;;;6.75;4.05;;;;;;;11.40;62.93;96040.28;6214666;23;20017;-87
2024/02/19 05:43:59;;;;;;;3.75;3.35;;;;;;;11.38;63.04;96040.44;6187907;23;20019;-86
2024/02/19 05:46:24;;;;;;;5.10;3.78;;;;;;;11.35;63.04;96039.00;6163931;23;20017;-87
2024/02/19 05:48:50;;;;;;;5.95;4.25;;;;;;;11.36;63.15;96037.19;6139756;23;20013;-86
2024/02/19 05:51:16;;;;;;;4.50;3.90;;;;;;;11.27;63.52;96039.00;6163846;23;20013;-87
2024/02/19 05:53:41;;;;;;;4.32;3.63;;;;;;;11.34;63.40;96044.34;6162390;23;20012;-87
2024/02/19 05:56:10;;;;;;;4.85;3.72;;;;;;;11.40;63.33;96048.91;6188277;23;20019;-86
2024/02/19 05:58:40;;;;;;;5.40;4.07;;;;;;;11.23;63.68;96042.91;6188289;23;20015;-86
2024/02/19 06:01:06;;;;;;;5.63;4.32;;;;;;;11.23;63.56;96042.06;6188435;23;20011;-87
2024/02/19 06:03:34;;;;;;;7.30;4.15;;;;;;;11.09;63.93;96040.91;6139389;23;20004;-87
2024/02/19 06:05:59;;;;;;;5.63;4.25;;;;;;;11.22;64.20;96048.28;6188534;23;20008;-86
2024/02/19 06:08:27;;;;;;;6.50;4.35;;;;;;;11.20;64.23;96043.22;6213819;23;20010;-87
2024/02/19 06:10:52;;;;;;;7.43;4.20;;;;;;;11.47;62.97;96043.88;6213553;23;20000;-86
2024/02/19 06:13:18;;;;;;;5.82;4.82;;;;;;;11.23;63.79;96049.88;6213561;23;20005;-86
2024/02/19 06:15:44;;;;;;;5.57;4.50;;;;;;;11.35;63.64;96056.41;6188552;23;20066;-87
2024/02/19 06:18:09;;;;;;;7.25;5.43;;;;;;;11.30;63.71;96062.09;6177748;23;20024;-86
2024/02/19 06:20:36;;;;;;;7.13;5.30;;;;;;;11.43;63.43;96068.63;6138850;23;20004;-87
2024/02/19 06:23:02;;;;;;;8.35;6.40;;;;;;;11.44;63.66;96075.47;6188238;23;20083;-86
2024/02/19 06:25:28;;;;;;;7.68;5.88;;;;;;;11.40;63.62;96069.75;6188083;23;20005;-86
2024/02/19 06:27:53;;;;;;;8.10;6.50;;;;;;;11.10;64.46;96081.59;6138344;23;20014;-87
2024/02/19 06:30:19;;;;;;;8.10;6.05;;;;;;;11.39;63.58;96070.75;6164547;23;20009;-86
2024/02/19 06:32:44;;;;;;;7.35;5.93;;;;;;;11.34;63.54;96065.19;6138396;23;20009;-86
2024/02/19 06:35:10;;;;;;;10.23;6.75;;;;;;;11.49;63.49;96075.78;6138922;23;20020;-86
2024/02/19 06:37:35;;;;;;;8.63;6.78;;;;;;;11.34;63.66;96066.00;6163709;23;20009;-86
2024/02/19 06:40:01;;;;;;;9.77;7.22;;;;;;;11.35;63.88;96077.25;6163130;23;20008;-86
2024/02/19 06:44:52;;;;;;;10.27;7.65;;;;;;;11.09;64.34;96074.75;6213590;23;20070;-86
2024/02/19 06:47:17;;;;;;;10.30;7.60;;;;;;;11.06;64.79;96077.66;6187538;23;20009;-86
2024/02/19 06:49:43;;;;;;;8.73;7.20;;;;;;;11.02;64.88;96089.38;6187959;23;20001;-87
2024/02/19 06:52:09;;;;;;;13.60;8.68;;;;;;;11.12;64.38;96084.88;6139122;23;20023;-86
2024/02/19 06:54:34;;;;;;;9.63;7.60;;;;;;;11.30;63.86;96095.94;6163129;23;20031;-86
2024/02/19 06:56:59;;;;;;;11.30;8.40;;;;;;;11.38;63.78;96102.16;6161998;23;20223;-86
2024/02/19 06:59:30;;;;;;;11.20;8.38;;;;;;;11.27;63.92;96091.09;6163296;23;20009;-86
2024/02/19 07:01:55;;;;;;;9.93;7.85;;;;;;;11.20;64.29;96090.09;6164217;23;20098;-86
2024/02/19 07:04:21;;;;;;;9.75;8.23;;;;;;;11.21;64.20;96102.13;6166628;23;20041;-86
2024/02/19 07:06:46;;;;;;;10.57;8.20;;;;;;;11.13;64.18;96099.50;6163062;23;20076;-86
2024/02/19 07:11:37;;;;;;;11.30;8.48;;;;;;;11.14;64.64;96103.75;6209538;23;20028;-86
2024/02/19 07:14:02;;;;;;;12.63;9.23;;;;;;;11.32;64.22;96114.03;6193302;23;20053;-86
2024/02/19 07:16:28;;;;;;;9.00;7.20;;;;;;;11.28;64.37;96118.75;6217570;23;20008;-86
2024/02/19 07:18:53;;;;;;;11.63;8.77;;;;;;;11.43;63.71;96128.53;6192453;23;20016;-86
2024/02/19 07:21:18;;;;;;;10.98;8.30;;;;;;;11.47;63.61;96127.25;6218001;23;20063;-86
2024/02/19 07:23:47;;;;;;;14.00;10.10;;;;;;;11.27;64.06;96130.16;6185529;23;20087;-86
2024/02/19 07:26:12;;;;;;;12.82;8.82;;;;;;;11.38;63.94;96125.59;6138415;23;20013;-86
2024/02/19 07:28:38;;;;;;;11.20;8.93;;;;;;;11.14;64.69;96127.19;6175854;23;20024;-87
2024/02/19 07:31:03;;;;;;;11.52;8.30;;;;;;;11.35;64.03;96130.16;6182932;23;20004;-86
2024/02/19 07:33:29;;;;;;;9.40;7.43;;;;;;;11.41;63.79;96140.91;6158404;23;20066;-85
2024/02/19 07:35:57;;;;;;;10.55;8.02;;;;;;;11.41;63.91;96135.72;6157458;23;19997;-86
2024/02/19 07:38:23;;;;;;;10.32;7.82;;;;;;;11.30;64.09;96137.63;6182332;23;20017;-87
2024/02/19 07:40:48;;;;;;;9.32;7.28;;;;;;;11.31;64.26;96143.66;6181994;23;20036;-86
2024/02/19 07:43:13;;;;;;;9.93;7.85;;;;;;;11.44;63.54;96132.75;6184410;23;20065;-87
2024/02/19 07:48:14;;;;;;;8.40;6.43;;;;;;;11.41;63.81;96144.34;6222190;23;20051;-86
2024/02/19 07:50:41;;;;;;;7.82;6.30;;;;;;;11.41;63.59;96143.53;6195637;23;20001;-86
2024/02/19 07:53:07;;;;;;;9.20;6.70;;;;;;;11.53;63.32;96155.25;6213207;23;20027;-86
2024/02/19 07:55:32;;;;;;;7.75;6.35;;;;;;;11.44;63.60;96144.03;6188662;23;20017;-86
2024/02/19 07:58:01;;;;;;;9.00;6.18;;;;;;;11.51;63.65;96165.84;6188713;23;20078;-86
2024/02/19 08:00:29;;;;;;;9.10;7.10;;;;;;;11.64;63.16;96154.94;6198306;23;20013;-86
2024/02/19 08:02:55;;;;;;;8.85;6.47;;;;;;;11.55;63.43;96156.72;6189649;23;20010;-86
2024/02/19 08:05:20;;;;;;;9.43;7.43;;;;;;;11.59;63.54;96167.63;6188807;23;20073;-86
2024/02/19 08:10:11;;;;;;;9.52;7.47;;;;;;;11.70;63.43;96169.13;6189048;23;20031;-87
2024/02/19 08:12:39;;;;;;;10.65;8.20;;;;;;;11.76;63.36;96178.09;6165638;23;20012;-85
2024/02/19 08:15:06;;;;;;;12.90;8.98;;;;;;;11.78;63.52;96161.31;6166074;23;20009;-85
2024/02/19 08:17:32;;;;;;;11.88;8.55;;;;;;;11.69;63.53;96172.69;6166183;23;20008;-86
2024/02/19 08:19:57;;;;;;;11.40;8.43;;;;;;;11.68;63.60;96179.72;6165399;23;20008;-86
2024/02/19 08:22:26;;;;;;;13.13;8.80;;;;;;;11.50;63.91;96174.63;6203635;23;20044;-86
2024/02/19 08:24:51;;;;;;;14.50;8.80;;;;;;;11.54;64.59;96188.16;6195943;23;20004;-86
2024/02/19 08:27:16;;;;;;;9.70;7.18;;;;;;;11.61;63.88;96178.72;6195045;23;20004;-86
2024/02/19 08:29:42;;;;;;;7.22;5.60;;;;;;;11.68;63.73;96174.50;6219916;23;20004;-87
2024/02/19 08:32:09;;;;;;;11.30;7.10;;;;;;;11.57;64.35;96190.44;6192523;23;20023;-87
2024/02/19 08:34:35;;;;;;;20.55;10.80;;;;;;;11.74;63.71;96186.88;6219448;23;20099;-86
2024/02/19 08:37:00;;;;;;;16.25;9.50;;;;;;;11.87;63.38;96193.44;6194484;23;20072;-86
2024/02/19 08:39:25;;;;;;;514.70;23.02;;;;;;;11.85;63.54;96185.75;6194183;23;20087;-86
2024/02/19 08:41:51;;;;;;;11.57;8.05;;;;;;;11.81;63.16;96191.47;6219913;23;20047;-87
2024/02/19 08:44:16;;;;;;;42.10;10.98;;;;;;;11.82;63.42;96204.34;6194177;23;20032;-87
2024/02/19 08:46:42;;;;;;;12.35;8.38;;;;;;;11.78;63.76;96204.81;6194220;23;20012;-86
2024/02/19 08:49:09;;;;;;;13.25;9.00;;;;;;;11.56;64.69;96212.28;6194213;23;20023;-87
2024/02/19 08:54:00;;;;;;;10.63;8.13;;;;;;;11.39;65.28;96221.81;6238019;22;20035;-87
2024/02/19 08:56:26;;;;;;;9.52;6.97;;;;;;;11.48;65.01;96220.88;6219846;23;20012;-87
2024/02/19 08:58:53;;;;;;;8.98;6.78;;;;;;;11.39;65.40;96221.81;6194940;23;20012;-86
2024/02/19 09:01:21;;;;;;;9.90;7.65;;;;;;;11.72;64.08;96209.69;6194334;23;20057;-88
2024/02/19 09:06:12;;;;;;;6.70;5.65;;;;;;;11.86;63.30;96213.47;6205239;23;20017;-87
2024/02/19 09:08:38;;;;;;;8.07;6.30;;;;;;;11.65;64.20;96208.72;6214953;23;20015;-86
2024/02/19 09:11:03;;;;;;;8.18;6.43;;;;;;;11.49;65.00;96209.47;6188739;23;20083;-87
2024/02/19 09:13:34;;;;;;;9.48;6.50;;;;;;;11.78;64.36;96218.66;6213858;23;20008;-87
2024/02/19 09:16:02;;;;;;;;;;;;;;;11.67;64.75;96221.56;6214131;23;20007;-87
2024/02/19 09:18:28;;;;;;;7.22;5.90;;;;;;;11.92;64.08;96225.09;6237843;23;19912;-87
2024/02/19 09:20:54;;;;;;;8.48;6.07;;;;;;;11.93;64.13;96213.66;6164319;23;20086;-86
2024/02/19 09:23:21;;;;;;;7.25;5.80;;;;;;;12.21;63.84;96218.59;6164213;23;20016;-86
2024/02/19 09:25:47;;;;;;;8.23;6.10;;;;;;;12.21;63.96;96206.34;6164410;23;20100;-87
2024/02/19 09:28:12;;;;;;;7.88;5.60;;;;;;;12.16;64.40;96234.69;6188581;23;20040;-87
2024/02/19 09:30:37;;;;;;;7.20;5.55;;;;;;;12.25;64.08;96214.66;6188746;23;20015;-86
2024/02/19 09:33:03;;;;;;;6.50;4.82;;;;;;;12.48;63.41;96223.44;6213688;23;20080;-86
2024/02/19 09:35:29;;;;;;;6.82;5.93;;;;;;;12.37;63.82;96234.22;6186092;23;20012;-87
2024/02/19 09:37:56;;;;;;;5.22;4.60;;;;;;;12.41;63.77;96224.28;6213814;23;20063;-87
2024/02/19 09:40:23;;;;;;;6.40;4.68;;;;;;;12.47;63.57;96221.84;6188718;23;20032;-87
2024/02/19 09:42:50;;;;;;;5.50;4.70;;;;;;;12.69;62.86;96228.16;6213411;23;20075;-87
2024/02/19 09:45:16;;;;;;;4.03;3.45;;;;;;;12.71;62.55;96231.41;6189139;23;20008;-86
2024/02/19 09:47:44;;;;;;;4.78;3.90;;;;;;;12.93;61.59;96223.88;6163729;23;20080;-87
2024/02/19 09:50:11;;;;;;;6.00;4.30;;;;;;;12.79;61.95;96227.97;6213993;23;20004;-87
2024/02/19 09:52:38;;;;;;;5.43;4.18;;;;;;;12.85;62.27;96235.16;6238783;23;20059;-87
2024/02/19 09:57:30;;;;;;;5.95;4.40;;;;;;;12.94;61.57;96233.31;6242839;22;20020;-87
2024/02/19 10:00:02;;;;;;;4.47;4.00;;;;;;;12.80;62.39;96234.03;6193407;23;20008;-86
2024/02/19 10:02:29;;;;;;;4.38;3.42;;;;;;;12.91;61.96;96231.88;6218535;23;20071;-87
2024/02/19 10:04:54;;;;;;;5.07;4.05;;;;;;;12.67;62.32;96224.09;6193463;23;20014;-87
2024/02/19 10:07:20;;;;;;;5.60;4.38;;;;;;;12.71;62.54;96234.00;6218516;23;20039;-87
2024/02/19 10:09:49;;;;;;;5.43;4.05;;;;;;;12.59;62.89;96226.72;6218616;23;20004;-87
2024/02/19 10:12:16;;;;;;;5.90;4.47;;;;;;;12.87;62.24;96240.19;6218239;23;20008;-86
2024/02/19 10:14:41;;;;;;;4.70;4.20;;;;;;;12.98;62.27;96246.88;6218542;23;20036;-87
2024/02/19 10:17:07;;;;;;;4.30;3.90;;;;;;;13.12;61.15;96233.13;6192797;23;20046;-87
2024/02/19 10:19:36;;;;;;;6.72;4.22;;;;;;;13.10;61.63;96240.31;6192369;23;20012;-87
2024/02/19 10:22:01;;;;;;;5.18;4.00;;;;;;;12.83;62.42;96238.91;6193350;23;20020;-87
2024/02/19 10:24:27;;;;;;;5.07;4.00;;;;;;;12.80;62.31;96224.38;6193225;23;20019;-87
2024/02/19 10:26:52;;;;;;;4.13;3.67;;;;;;;13.01;61.91;96241.31;6193083;23;20011;-87
2024/02/19 10:29:18;;;;;;;5.25;3.75;;;;;;;12.99;61.66;96241.47;6209779;23;20024;-87
2024/02/19 10:31:44;;;;;;;4.22;3.60;;;;;;;13.13;61.27;96244.38;6188170;23;20019;-86
2024/02/19 10:34:11;;;;;;;5.03;4.20;;;;;;;12.87;62.31;96245.41;6188318;23;20015;-87
2024/02/19 10:36:37;;;;;;;6.03;3.70;;;;;;;12.96;61.89;96238.38;6188346;23;20005;-87
2024/02/19 10:41:29;;;;;;;6.80;3.70;;;;;;;13.21;60.76;96242.56;6213427;23;20025;-86
2024/02/19 10:43:55;;;;;;;4.22;3.80;;;;;;;12.93;61.41;96229.09;6163338;23;20009;-86
2024/02/19 10:46:21;;;;;;;3.55;3.25;;;;;;;13.05;60.77;96242.59;6187701;23;20017;-86
2024/02/19 10:48:55;;;;;;;4.15;3.60;;;;;;;12.97;60.41;96227.78;6188157;23;20079;-87
2024/02/19 10:51:24;;;;;;;3.67;3.33;;;;;;;12.98;60.52;96246.88;6163848;23;20051;-86
2024/02/19 10:54:05;;;;;;;6.03;3.97;;;;;;;12.80;61.89;96244.47;6187669;23;20020;-87
2024/02/19 10:56:39;;;;;;;4.75;3.92;;;;;;;12.75;62.15;96241.53;6138368;23;20346;-87
2024/02/19 10:59:08;;;;;;;3.75;3.40;;;;;;;12.93;61.60;96241.31;6212769;23;20013;-87
2024/02/19 11:01:46;;;;;;;4.60;3.88;;;;;;;13.18;61.42;96237.66;6188105;23;20004;-87
2024/02/19 11:04:15;;;;;;;5.53;3.80;;;;;;;13.22;61.58;96235.53;6164277;23;20129;-86
2024/02/19 11:06:57;;;;;;;5.28;3.63;;;;;;;13.35;60.01;96235.84;6188074;23;20095;-87
2024/02/19 11:09:29;;;;;;;4.13;3.70;;;;;;;13.41;60.84;96239.59;6187502;23;20012;-87
2024/02/19 11:11:59;;;;;;;4.78;3.25;;;;;;;13.51;60.58;96237.56;6212926;23;20005;-87
2024/02/19 11:14:27;;;;;;;4.25;3.65;;;;;;;13.49;60.28;96235.13;6187756;23;20028;-87
2024/02/19 11:16:59;;;;;;;3.67;3.00;;;;;;;13.56;60.04;96235.25;6188045;23;20004;-87
2024/02/19 11:19:26;;;;;;;5.05;3.78;;;;;;;13.54;60.51;96221.56;6162748;23;20055;-87
2024/02/19 11:22:08;;;;;;;3.88;3.47;;;;;;;13.28;61.13;96235.66;6187068;23;20096;-87
2024/02/19 11:24:33;;;;;;;3.78;2.90;;;;;;;13.45;61.16;96227.81;6187410;23;20080;-87
2024/02/19 11:26:59;;;;;;;4.45;3.00;;;;;;;13.62;60.54;96224.13;6187785;23;20028;-87
2024/02/19 11:29:25;;;;;;;3.92;2.95;;;;;;;13.84;59.49;96232.16;6187370;23;20004;-86
2024/02/19 11:32:02;;;;;;;5.07;2.67;;;;;;;13.55;60.66;96230.19;6212693;23;20139;-87
2024/02/19 11:34:28;;;;;;;2.50;2.22;;;;;;;13.69;59.73;96217.22;6197463;23;20011;-87
2024/02/19 11:37:04;;;;;;;3.72;2.15;;;;;;;13.77;58.82;96216.34;6162805;23;20000;-87
2024/02/19 11:39:37;;;;;;;2.50;2.05;;;;;;;13.81;58.15;96201.94;6187543;23;20001;-87
2024/02/19 11:42:04;;;;;;;3.05;1.80;;;;;;;14.05;57.34;96208.81;6187268;23;20020;-87
2024/02/19 11:44:31;;;;;;;4.20;1.90;;;;;;;14.01;57.92;96210.16;6187631;23;20060;-87
2024/02/19 11:46:58;;;;;;;4.82;2.15;;;;;;;13.61;59.03;96193.75;6187567;23;20015;-88
2024/02/19 11:49:27;;;;;;;3.00;1.80;;;;;;;13.58;58.29;96201.91;6187072;23;20142;-87
2024/02/19 11:51:53;;;;;;;4.18;2.40;;;;;;;13.88;57.83;96194.25;6187191;23;20032;-86
2024/02/19 11:54:19;;;;;;;3.38;1.95;;;;;;;13.79;58.48;96201.31;6138329;23;20016;-87
2024/02/19 11:56:45;;;;;;;3.28;2.38;;;;;;;13.76;59.83;96188.56;6187398;23;20004;-87
2024/02/19 11:59:13;;;;;;;5.57;2.28;;;;;;;14.05;58.61;96187.06;6187499;23;20031;-88
2024/02/19 12:01:39;;;;;;;3.10;1.98;;;;;;;14.20;57.05;96168.78;6191550;23;20060;-87
2024/02/19 12:04:08;;;;;;;3.78;2.30;;;;;;;14.21;57.45;96171.25;6204533;23;20020;-88
2024/02/19 12:06:39;;;;;;;2.78;1.70;;;;;;;14.07;56.13;96172.03;6155095;23;20008;-88
2024/02/19 12:09:07;;;;;;;3.05;1.90;;;;;;;14.10;56.56;96163.81;6203453;23;20031;-86
2024/02/19 12:14:11;;;;;;;3.38;2.03;;;;;;;14.24;57.13;96173.53;6229720;23;20051;-85
2024/02/19 12:16:36;;;;;;;2.65;2.03;;;;;;;14.26;57.12;96165.50;6229500;23;20016;-86
2024/02/19 12:19:05;;;;;;;3.20;2.20;;;;;;;14.62;55.75;96165.66;6176206;23;20062;-87
2024/02/19 12:21:32;;;;;;;3.28;2.10;;;;;;;14.49;56.88;96157.59;6183517;23;20004;-86
2024/02/19 12:24:00;;;;;;;2.38;1.92;;;;;;;14.36;55.95;96154.78;6208208;23;20066;-86